首页
METAR-TAF:

METAR-TAF

机场 :

邦里基國際機場

塔拉瓦环礁, 基里巴斯

纬度: 01-21N, 经度: 172-55E, 海拔: 2米

当前天气观测

该预报发布于49分钟前的12:00 UTC
风速7节,风向东北
温度 29°C
湿度 74%
气压 1006 hPa
能见度10公里或以上
少量云层高于2000英尺
多云层高于30000英尺

METAR: NGTA 171200Z 04007KT 9999 FEW020 BKN300 29/24 Q1006

时间: 02:49 (12:49 UTC)

预报

该预报发布于1小时和38分钟前的11:11 UTC
预报有效从17日的 12点(UTC)到 18日的 12点(UTC)
风速9节,风向
能见度10公里或以上
少量云层高于2000英尺

TAF: NGTA 171111Z 1712/1812 36009KT 9999 FEW020

超过4000个机场的气象观测和天气预报(METAR&TAF报告)。

可查询的气象台以黄色和红色小点在地图上表示。

将鼠标移到小点上方,可查看气象台名称。

然后点击查看天气观测和预报。

如需切换地图:点击带黑十字的绿色按钮放大地图;点击带横线的绿色按钮缩小地图;或者点击绿色箭头查看邻近地区的地图。


METAR-TAF: